Cliffdell, Washington
Current Conditions -  °F | °C
As of 12:53 PM on Tuesday 21 Oct 2014 (Local Time) from KYKM Reporting Station
Clear Clear  
Wind Chill: 59°   Ceiling: Unl
Heat Index: 59°   Visibility: 10mi
Dew Point: 46°   Wind: 5mph
Humidity: 62%   Direction: 110°ESE
Pressure: 29.94"   Gusts: NA
Location:  46.6628°N, 121.193°W
Report Text: KYKM 211953Z 11004KT 10SM CLR 15/08 A2994 RMK AO2 SLP140 T01500078
Loading
Personal Weather Stations






























Interactive Weather Map New forecast layout! Learn more

10-Day Weather Forecast

Advertisements
Track Severe Weather on mobile